• Join FlightAware (Why Join?)
  • Login
  • US Flag 
09:05PM EST


 

Airport Tracker/Info


-or-


 

Live Flight TrackerFlight Track Log ✈ JBU661 ✈ 15-Jun-2013 ✈ KSYR - KMCO

Flight Track Log - Related Links

Times and Time Zones

All times are in EDT time to prevent confusion due to time zone crossing. See the JBU661 flight status page for this flight to view local times or setup timezone preferences in your user account.

Time Position Orientation Groundspeed Altitude Reporting Facility
EDT Latitude Longitude Course Direction KTS MPH feet Rate Location/Type
04:11PM 43.1069 -76.1547 212° Southwest 158 182 2,000  Level Boston Center
04:12PM 43.0867 -76.2017 239° Southwest 185 213 2,900 2,340 Climbing Boston Center
04:13PM 43.0222 -76.2575 212° Southwest 262 302 6,300 2,100 Climbing Boston Center
04:14PM 42.8148 -76.4469 224° Southwest  Level FlightAware Approximate
04:15PM 42.7066 -76.5394 210° Southwest  Level FlightAware Approximate
04:16PM 42.6035 -76.6279 204° Southwest  Level FlightAware Approximate
04:16PM 42.8581 -76.3922 211° Southwest 303 349 10,500  Level New York Center
04:17PM 42.4891 -76.7064 212° Southwest  Level FlightAware Approximate
04:17PM 42.7781 -76.4586 211° Southwest 325 374 12,200  Level New York Center
04:18PM 42.6892 -76.5325 211° Southwest 355 409 14,700 2,340 Climbing New York Center
04:19PM 42.5981 -76.6061 211° Southwest 379 436 17,000 2,100 Climbing New York Center
04:20PM 42.5069 -76.6853 213° Southwest 392 451 19,000 1,680 Climbing New York Center
04:21PM 42.4028 -76.7714 211° Southwest 397 457 20,400 1,560 Climbing New York Center
04:22PM 42.3006 -76.8572 212° Southwest 416 479 22,200 1,560 Climbing New York Center
04:23PM 42.1986 -76.9375 210° Southwest 432 497 23,600 1,320 Climbing New York Center
04:24PM 42.0961 -77.0231 212° Southwest 432 497 24,900 1,200 Climbing New York Center
04:25PM 41.9917 -77.1108 212° Southwest 438 504 26,100 900 Climbing New York Center
04:26PM 41.8825 -77.2033 212° Southwest 449 517 26,700 420 Climbing New York Center
04:27PM 41.7669 -77.2981 211° Southwest 473 544 27,000 420 Climbing New York Center
04:28PM 41.6511 -77.3950 212° Southwest 488 562 27,600 1,140 Climbing New York Center
04:29PM 41.5375 -77.4919 213° Southwest 494 568 29,400 1,560 Climbing New York Center
04:31PM 41.3389 -77.6514 211° Southwest 471 542 32,100 1,200 Climbing Cleveland Center
04:32PM 41.2306 -77.7392 211° Southwest 466 536 33,000 840 Climbing Cleveland Center
04:33PM 41.1200 -77.8267 211° Southwest 466 536 33,800 480 Climbing Cleveland Center
04:34PM 41.0117 -77.9167 212° Southwest 466 536 34,000 60 Climbing Cleveland Center
04:35PM 40.9075 -78.0114 215° Southwest 466 536 34,000  Level Cleveland Center
04:36PM 40.8247 -78.1328 228° Southwest 461 531 34,000 300 Level Cleveland Center
04:37PM 40.7439 -78.2592 230° Southwest 450 518 34,700 780 Climbing Cleveland Center
04:38PM 40.6631 -78.3825 229° Southwest 450 518 35,600 600 Climbing Cleveland Center
04:39PM 40.5819 -78.5081 230° Southwest 450 518 36,000 180 Climbing Cleveland Center
04:40PM 40.5050 -78.6306 230° Southwest 450 518 36,000  Level Cleveland Center
04:41PM 40.4214 -78.7531 228° Southwest 450 518 36,000  Level Cleveland Center
04:42PM 40.3419 -78.8750 230° Southwest 450 518 36,000  Level Cleveland Center
04:43PM 40.2392 -78.9756 217° Southwest 451 519 36,000  Level Cleveland Center
04:44PM 40.1342 -79.0706 215° Southwest 457 526 36,000  Level Cleveland Center
04:45PM 40.0208 -79.1761 216° Southwest 463 533 36,000  Level Cleveland Center
04:47PM 39.8064 -79.3731 215° Southwest 464 534 36,000  Level Washington Center
04:48PM 39.7036 -79.4675 215° Southwest 457 526 36,000  Level Washington Center
04:49PM 39.5786 -79.5225 199° South 456 525 36,000  Level Washington Center
04:50PM 39.4483 -79.5586 192° South 470 541 36,000  Level Washington Center
04:51PM 39.3181 -79.5944 192° South 481 554 36,000  Level Washington Center
04:52PM 39.1831 -79.6350 193° South 487 560 36,000  Level Washington Center
04:53PM 39.0528 -79.6706 192° South 487 560 36,000  Level Washington Center
04:54PM 38.9200 -79.7139 194° South 493 567 36,000  Level Washington Center
04:55PM 38.7872 -79.7517 193° South 493 567 36,000  Level Washington Center
04:56PM 38.6714 -79.7850 193° South 493 567 36,000  Level Washington Center
04:57PM 38.5389 -79.8200 192° South 493 567 36,000  Level Washington Center
04:58PM 38.4081 -79.8578 193° South 493 567 36,000  Level Washington Center
04:59PM 38.2631 -79.8917 190° South 487 560 36,000  Level Washington Center
05:00PM 38.1306 -79.9211 190° South 487 560 36,000  Level Washington Center
05:01PM 37.9981 -79.9531 191° South 487 560 36,000  Level Washington Center
05:02PM 37.8803 -79.9803 190° South 487 560 36,000  Level Washington Center
05:03PM 37.7478 -80.0119 191° South 487 560 36,000  Level Washington Center
05:04PM 37.6131 -80.0408 190° South 487 560 36,000  Level Washington Center
05:05PM 37.4658 -80.0742 190° South 487 560 36,000  Level Washington Center
05:06PM 37.3311 -80.1053 190° South 487 560 36,000  Level Washington Center
05:07PM 37.1967 -80.1339 190° South 487 560 36,000  Level Washington Center
05:08PM 37.0767 -80.1606 190° South 487 560 36,000  Level Washington Center
05:08PM 37.0150 -80.1708 188° South 492 566 36,000  Level Atlanta Center
05:09PM 36.8950 -80.2000 191° South 502 578 36,000  Level Atlanta Center
05:10PM 36.7603 -80.2272 189° South 502 578 36,000  Level Atlanta Center
05:11PM 36.6236 -80.2572 190° South 502 578 36,000  Level Atlanta Center
05:12PM 36.4764 -80.2872 189° South 502 578 36,000  Level Atlanta Center
05:13PM 36.3439 -80.3192 191° South 502 578 36,000  Level Atlanta Center
05:14PM 36.2092 -80.3486 190° South 502 578 36,000  Level Atlanta Center
05:15PM 36.0747 -80.3778 190° South 502 578 36,000  Level Atlanta Center
05:16PM 35.9522 -80.4039 190° South 502 578 36,000  Level Atlanta Center
05:17PM 35.8197 -80.4328 190° South 491 565 36,000  Level Atlanta Center
05:18PM 35.6869 -80.4619 190° South 491 565 36,000  Level Atlanta Center
05:19PM 35.5522 -80.4906 190° South 491 565 36,000  Level Atlanta Center
05:20PM 35.4008 -80.5228 190° South 497 572 36,000  Level Atlanta Center
05:22PM 35.1522 -80.5772 190° South 520 598 36,000  Level Jacksonville Center
05:23PM 35.0172 -80.6089 191° South 507 583 36,000  Level Jacksonville Center
05:24PM 34.8803 -80.6378 190° South 496 571 36,000  Level Jacksonville Center
05:25PM 34.7658 -80.6636 191° South 491 565 36,000  Level Jacksonville Center
05:26PM 34.6142 -80.6953 190° South 493 567 36,000  Level Jacksonville Center
05:27PM 34.4831 -80.7161 187° South 498 573 36,000  Level Jacksonville Center
05:28PM 34.3478 -80.7272 184° South 493 567 36,000  Level Jacksonville Center
05:29PM 34.2353 -80.7425 186° South 474 545 36,000  Level Jacksonville Center
05:30PM 34.1022 -80.7583 186° South 468 539 36,000 -60 Level Jacksonville Center
05:31PM 33.9708 -80.7717 185° South 474 545 35,900 -60 Descending Jacksonville Center
05:32PM 33.8419 -80.7897 187° South 474 545 35,900  Level Jacksonville Center
05:33PM 33.7106 -80.8053 186° South 481 554 36,000  Climbing Jacksonville Center
05:34PM 33.5794 -80.8208 186° South 481 554 36,000  Level Jacksonville Center
05:35PM 33.4461 -80.8364 186° South 481 554 36,000  Level Jacksonville Center
05:36PM 33.3108 -80.8519 185° South 481 554 36,000  Level Jacksonville Center
05:37PM 33.1794 -80.8675 186° South 481 554 36,000  Level Jacksonville Center
05:38PM 33.0336 -80.8831 185° South 486 559 36,000  Level Jacksonville Center
05:39PM 32.9022 -80.8983 186° South 481 554 36,000 -60 Level Jacksonville Center
05:40PM 32.7689 -80.9136 186° South 481 554 35,900  Descending Jacksonville Center
05:41PM 32.6378 -80.9289 186° South 481 554 36,000  Climbing Jacksonville Center
05:42PM 32.5044 -80.9442 186° South 480 552 36,000  Level Jacksonville Center
05:43PM 32.3753 -80.9592 186° South 479 551 36,000  Level Jacksonville Center
05:44PM 32.2522 -80.9692 184° South 484 557 36,000  Level Jacksonville Center
05:45PM 32.1167 -80.9842 185° South 484 557 36,000  Level Jacksonville Center
05:46PM 31.9644 -81.0019 186° South 490 564 36,000 -660 Level Jacksonville Center
05:47PM 31.8478 -81.0167 186° South 490 564 34,700 -1,020 Descending Jacksonville Center
05:48PM 31.7019 -81.0342 186° South 478 550 34,000 -360 Descending Jacksonville Center
05:49PM 31.5686 -81.0492 185° South 486 559 34,000 -180 Level Jacksonville Center
05:50PM 31.4478 -81.0636 186° South 486 559 33,700 -720 Descending Jacksonville Center
05:51PM 31.2975 -81.0811 186° South 481 554 32,600 -900 Descending Jacksonville Center
05:52PM 31.1767 -81.0958 186° South 489 563 32,000 -300 Descending Jacksonville Center
05:53PM 31.0392 -81.1128 186° South 489 563 32,000  Level Jacksonville Center
05:54PM 30.9014 -81.1228 184° South 494 568 32,000  Level Jacksonville Center
05:55PM 30.7619 -81.1422 187° South 500 575 32,000  Level Jacksonville Center
05:56PM 30.6222 -81.1544 184° South 500 575 32,000  Level Jacksonville Center
05:57PM 30.4864 -81.1497 178° South 495 570 32,000 -60 Level Jacksonville Center
05:58PM 30.3464 -81.1450 178° South 501 577 31,900  Descending Jacksonville Center
05:59PM 30.2064 -81.1403 178° South 501 577 32,000  Climbing Jacksonville Center
06:00PM 30.0686 -81.1381 179° South 501 577 32,000 -60 Level Jacksonville Center
06:01PM 29.9267 -81.1333 178° South 501 577 31,900 -1,800 Descending Jacksonville Center
06:02PM 29.7908 -81.1289 178° South 495 570 28,400 -3,420 Descending Jacksonville Center
06:03PM 29.6592 -81.1264 179° South 495 570 25,100 -3,300 Descending Jacksonville Center
06:04PM 29.5319 -81.1239 179° South 475 547 21,800 -3,360 Descending Jacksonville Center
06:05PM 29.4025 -81.1167 177° South 428 493 18,400 -3,540 Descending Jacksonville Center
06:06PM 29.2856 -81.1142 179° South 421 484 14,800 -3,240 Descending Jacksonville Center
06:07PM 29.1747 -81.1042 175° South 416 479 12,000 -1,440 Descending Jacksonville Center
06:08PM 29.0764 -81.0964 176° South 376 433 12,000 -60 Level Jacksonville Center
06:09PM 28.9908 -81.0861 174° South 323 372 11,900 -1,080 Descending Jacksonville Center
06:10PM 28.9069 -81.0711 171° South 312 359 9,900 -2,100 Descending Jacksonville Center
06:11PM 28.8333 -81.0500 166° South 294 338 7,900 -1,800 Descending Orlando TRACON
06:12PM 28.7667 -81.0833 204° Southwest 259 298 6,300 -1,380 Descending Orlando TRACON
06:13PM 28.7500 -81.1667 257° West 234 269 5,000 -1,560 Descending Orlando TRACON
06:14PM 28.7500 -81.2333 270° West 235 270 3,200 -1,020 Descending Orlando TRACON
06:15PM 28.6833 -81.2667 204° Southwest 231 266 3,000 -120 Descending Orlando TRACON
06:16PM 28.6500 -81.2833 204° Southwest 227 261 3,000 -300 Level Orlando TRACON
06:17PM 28.5667 -81.2833 180° South 223 257 2,500 -720 Descending Orlando TRACON
06:18PM 28.5167 -81.2833 180° South 204 235 1,500 -960 Descending Orlando TRACON
06:19PM 28.4667 -81.2833 180° South 133 153 600 -840 Descending Orlando TRACON
06:21PM 28.4294 -81.3090 186° South  Level Estimated
06:28PM 28.4294 -81.3090 186° South  Level Estimated
06:29PM 28.4294 -81.3090 186° South  Level Estimated
06:30PM 28.4294 -81.3090 186° South  Level Estimated
06:31PM 28.4294 -81.3090 186° South  Level Estimated